createdAt,value
2022-12-23T00:00:42.094Z,20.65
2022-12-23T00:03:09.251Z,18.63
2022-12-23T00:05:38.256Z,20.00
2022-12-23T00:08:06.299Z,19.33
2022-12-23T00:10:33.455Z,20.48
2022-12-23T00:13:18.894Z,19.27
2022-12-23T00:15:45.633Z,19.73
2022-12-23T00:18:12.463Z,21.88
2022-12-23T00:20:39.234Z,20.60
2022-12-23T00:23:06.727Z,21.13
2022-12-23T00:25:41.175Z,20.65
2022-12-23T00:28:16.000Z,19.30
2022-12-23T00:31:04.572Z,20.63
2022-12-23T00:33:44.805Z,19.98
2022-12-23T00:36:15.420Z,20.38
2022-12-23T00:39:00.813Z,21.13
2022-12-23T00:41:46.171Z,14.25
2022-12-23T00:44:13.493Z,14.98
2022-12-23T00:46:40.242Z,14.65
2022-12-23T00:49:26.141Z,16.38
2022-12-23T00:51:53.272Z,13.98
2022-12-23T00:54:20.500Z,14.55
2022-12-23T00:56:47.259Z,16.63
2022-12-23T00:59:19.159Z,17.85
2022-12-23T01:02:08.225Z,17.95
2022-12-23T01:05:00.243Z,20.45
2022-12-23T01:07:27.328Z,21.67
2022-12-23T01:09:54.137Z,21.17
2022-12-23T01:12:21.259Z,19.85
2022-12-23T01:14:48.560Z,19.27
2022-12-23T01:17:15.351Z,18.05
2022-12-23T01:19:42.303Z,18.48
2022-12-23T01:22:09.204Z,19.20
2022-12-23T01:24:35.959Z,19.83
2022-12-23T01:27:02.777Z,19.50
2022-12-23T01:29:30.013Z,18.85
2022-12-23T01:31:56.883Z,20.02
2022-12-23T01:34:23.651Z,17.98
2022-12-23T01:36:50.560Z,18.58
2022-12-23T01:39:17.515Z,19.10
2022-12-23T01:42:02.845Z,18.73
2022-12-23T01:44:55.308Z,19.65
2022-12-23T01:47:25.132Z,17.88
2022-12-23T01:50:19.936Z,17.95
2022-12-23T01:53:07.353Z,17.70
2022-12-23T01:55:54.579Z,18.27
2022-12-23T01:58:25.959Z,18.58
2022-12-23T02:01:26.043Z,23.65
2022-12-23T02:03:59.256Z,19.80
2022-12-23T02:06:48.025Z,21.00
2022-12-23T02:09:40.331Z,21.23
2022-12-23T02:12:22.347Z,19.70
2022-12-23T02:15:13.882Z,19.90
2022-12-23T02:18:04.883Z,19.33
2022-12-23T02:21:19.963Z,20.45
2022-12-23T02:24:04.978Z,18.48
2022-12-23T02:27:09.748Z,20.52
2022-12-23T02:29:42.603Z,19.58
2022-12-23T02:32:12.258Z,19.33
2022-12-23T02:34:52.115Z,18.05
2022-12-23T02:37:44.224Z,19.50
2022-12-23T02:40:30.449Z,17.52
2022-12-23T02:43:20.550Z,17.10
2022-12-23T02:46:17.296Z,17.67
2022-12-23T02:48:57.005Z,16.77
2022-12-23T02:51:31.034Z,16.50
2022-12-23T02:54:03.135Z,15.38
2022-12-23T02:56:33.429Z,17.55
2022-12-23T02:59:05.736Z,16.17
2022-12-23T03:01:33.974Z,16.73
2022-12-23T03:04:01.040Z,17.10
2022-12-23T03:06:36.598Z,16.70
2022-12-23T03:09:03.470Z,17.00
2022-12-23T03:12:11.949Z,16.80
2022-12-23T03:15:05.255Z,15.85
2022-12-23T03:17:57.722Z,16.58
2022-12-23T03:20:33.137Z,17.17
2022-12-23T03:23:27.597Z,17.77
2022-12-23T03:26:02.128Z,17.83
2022-12-23T03:28:36.957Z,15.77
2022-12-23T03:31:09.892Z,17.15
2022-12-23T03:33:42.629Z,19.40
2022-12-23T03:36:24.562Z,18.52
2022-12-23T03:38:55.197Z,18.42
2022-12-23T03:41:33.279Z,17.42
2022-12-23T03:44:29.417Z,17.83
2022-12-23T03:47:15.309Z,18.55
2022-12-23T03:50:00.675Z,16.23
2022-12-23T03:52:46.104Z,17.25
2022-12-23T03:55:20.131Z,16.92
2022-12-23T03:58:00.855Z,16.73
2022-12-23T04:00:34.252Z,19.27
2022-12-23T04:03:10.512Z,16.73
2022-12-23T04:05:40.730Z,17.15
2022-12-23T04:08:25.661Z,18.25
2022-12-23T04:10:53.478Z,19.38
2022-12-23T04:13:20.302Z,17.52
2022-12-23T04:15:47.247Z,17.88
2022-12-23T04:18:14.462Z,16.15
2022-12-23T04:20:41.080Z,17.27
2022-12-23T04:23:07.871Z,16.25
2022-12-23T04:25:34.741Z,18.02
2022-12-23T04:28:01.442Z,18.30
2022-12-23T04:30:34.004Z,20.08
2022-12-23T04:33:02.555Z,20.13
2022-12-23T04:35:29.647Z,20.80
2022-12-23T04:37:56.673Z,21.92
2022-12-23T04:40:23.544Z,20.77
2022-12-23T04:42:50.215Z,17.45
2022-12-23T04:45:16.976Z,18.50
2022-12-23T04:47:43.780Z,18.50
2022-12-23T04:50:14.795Z,14.48
2022-12-23T04:52:42.315Z,14.38
2022-12-23T04:55:09.677Z,13.35
2022-12-23T04:57:36.410Z,11.90
2022-12-23T05:00:04.912Z,13.55
2022-12-23T05:02:31.762Z,14.88
2022-12-23T05:04:58.577Z,15.50
2022-12-23T05:07:25.474Z,15.45
2022-12-23T05:09:52.583Z,17.30
2022-12-23T05:12:19.381Z,17.45
2022-12-23T05:14:46.325Z,15.70
2022-12-23T05:17:13.132Z,18.50
2022-12-23T05:19:39.839Z,19.85
2022-12-23T05:22:06.593Z,20.92
2022-12-23T05:24:33.512Z,20.42
2022-12-23T05:27:00.720Z,21.23
2022-12-23T05:29:29.217Z,19.73
2022-12-23T05:31:56.138Z,20.67
2022-12-23T05:34:22.925Z,18.92
2022-12-23T05:36:49.840Z,17.35
2022-12-23T05:39:17.008Z,15.38
2022-12-23T05:41:43.814Z,16.58
2022-12-23T05:44:10.555Z,15.48
2022-12-23T05:46:37.509Z,18.08
2022-12-23T05:49:04.259Z,18.75
2022-12-23T05:51:31.020Z,18.90
2022-12-23T05:53:57.797Z,17.52
2022-12-23T05:56:24.702Z,16.67
2022-12-23T05:58:51.451Z,20.70
2022-12-23T06:01:18.700Z,18.58
2022-12-23T06:03:45.416Z,19.10
2022-12-23T06:06:13.175Z,23.92
2022-12-23T06:08:40.031Z,26.90
2022-12-23T06:11:07.077Z,20.63
2022-12-23T06:13:33.863Z,20.27
2022-12-23T06:16:00.730Z,19.80
2022-12-23T06:18:27.493Z,21.10
2022-12-23T06:20:54.243Z,20.35
2022-12-23T06:23:21.014Z,20.92
2022-12-23T06:25:47.712Z,21.98
2022-12-23T06:28:14.432Z,18.38
2022-12-23T06:30:41.192Z,22.30
2022-12-23T06:33:07.863Z,21.75
2022-12-23T06:35:34.580Z,19.23
2022-12-23T06:38:01.269Z,20.92
2022-12-23T06:40:29.322Z,34.55
2022-12-23T06:42:56.107Z,24.17
2022-12-23T06:45:22.994Z,23.88
2022-12-23T06:47:49.856Z,20.02
2022-12-23T06:50:16.591Z,21.50
2022-12-23T06:52:43.682Z,22.80
2022-12-23T06:55:10.354Z,20.25
2022-12-23T06:57:37.416Z,19.88
2022-12-23T07:00:08.806Z,24.02
2022-12-23T07:02:35.680Z,22.60
2022-12-23T07:05:02.469Z,22.45
2022-12-23T07:07:29.358Z,23.38
2022-12-23T07:09:56.116Z,22.77
2022-12-23T07:12:22.869Z,23.55
2022-12-23T07:14:49.671Z,22.10
2022-12-23T07:17:16.617Z,22.88
2022-12-23T07:19:43.416Z,21.75
2022-12-23T07:22:13.050Z,22.38
2022-12-23T07:24:39.727Z,21.50
2022-12-23T07:27:06.498Z,23.65
2022-12-23T07:29:33.321Z,24.52
2022-12-23T07:32:02.125Z,27.00
2022-12-23T07:34:28.784Z,23.92
2022-12-23T07:36:56.124Z,24.40
2022-12-23T07:39:22.934Z,24.60
2022-12-23T07:41:55.497Z,24.77
2022-12-23T07:44:30.663Z,25.65
2022-12-23T07:46:57.365Z,27.77
2022-12-23T07:49:23.957Z,30.77
2022-12-23T07:51:50.723Z,29.02
2022-12-23T07:54:17.480Z,28.42
2022-12-23T07:56:44.206Z,28.55
2022-12-23T07:59:10.953Z,30.13
2022-12-23T08:01:37.895Z,27.55
2022-12-23T08:04:04.735Z,27.20
2022-12-23T08:06:32.496Z,28.00
2022-12-23T08:08:59.141Z,26.05
2022-12-23T08:11:25.819Z,25.15
2022-12-23T08:13:53.132Z,26.45
2022-12-23T08:16:19.951Z,25.77
2022-12-23T08:18:46.782Z,25.67
2022-12-23T08:21:15.960Z,27.33
2022-12-23T08:23:43.738Z,25.83
2022-12-23T08:26:16.886Z,27.83
2022-12-23T08:28:44.719Z,26.15
2022-12-23T08:31:26.529Z,28.40
2022-12-23T08:33:56.010Z,25.05
2022-12-23T08:36:25.820Z,25.88
2022-12-23T08:38:54.798Z,26.77
2022-12-23T08:41:35.890Z,29.33
2022-12-23T08:44:03.487Z,31.10
2022-12-23T08:46:30.395Z,29.00
2022-12-23T08:48:57.295Z,30.17
2022-12-23T08:51:25.639Z,31.80
2022-12-23T08:54:01.054Z,29.42
2022-12-23T08:56:32.444Z,29.35
2022-12-23T08:58:59.149Z,28.15
2022-12-23T09:01:30.119Z,29.67
2022-12-23T09:03:57.313Z,29.33
2022-12-23T09:06:29.456Z,25.52
2022-12-23T09:08:58.128Z,27.17
2022-12-23T09:11:28.357Z,25.67
2022-12-23T09:13:56.092Z,24.17
2022-12-23T09:16:23.641Z,23.20
2022-12-23T09:18:50.685Z,24.42
2022-12-23T09:21:22.411Z,24.88
2022-12-23T09:23:49.492Z,25.80
2022-12-23T09:26:25.219Z,28.98
2022-12-23T09:28:52.578Z,27.17
2022-12-23T09:31:21.877Z,28.67
2022-12-23T09:33:51.000Z,29.25
2022-12-23T09:36:18.193Z,30.00
2022-12-23T09:38:45.364Z,28.45
2022-12-23T09:41:40.128Z,35.88
2022-12-23T09:44:12.886Z,29.13
2022-12-23T09:46:48.334Z,27.45
2022-12-23T09:49:17.613Z,29.17
2022-12-23T09:51:45.813Z,27.33
2022-12-23T09:54:22.911Z,28.60
2022-12-23T09:57:18.813Z,25.52
2022-12-23T10:00:12.503Z,24.77
2022-12-23T10:03:16.425Z,26.13
2022-12-23T10:06:00.702Z,24.02
2022-12-23T10:08:27.494Z,23.58
2022-12-23T10:11:07.884Z,22.50
2022-12-23T10:13:37.561Z,23.08
2022-12-23T10:16:09.729Z,22.23
2022-12-23T10:19:00.157Z,20.77
2022-12-23T10:21:46.935Z,21.13
2022-12-23T10:24:23.462Z,22.52
2022-12-23T10:26:55.111Z,22.85
2022-12-23T10:29:27.787Z,21.77
2022-12-23T10:32:03.781Z,20.65
2022-12-23T10:34:57.010Z,20.33
2022-12-23T10:37:38.823Z,19.70
2022-12-23T10:40:22.817Z,20.08
2022-12-23T10:42:58.533Z,21.52
2022-12-23T10:46:03.934Z,21.48
2022-12-23T10:48:56.378Z,19.25
2022-12-23T10:51:34.171Z,18.60
2022-12-23T10:54:15.037Z,20.77
2022-12-23T10:56:42.642Z,18.67
2022-12-23T10:59:14.310Z,19.98
2022-12-23T11:01:44.006Z,18.85
2022-12-23T11:04:17.297Z,19.42
2022-12-23T11:06:46.900Z,20.67
2022-12-23T11:09:19.317Z,17.15
2022-12-23T11:12:01.379Z,16.80
2022-12-23T11:14:32.397Z,19.42
2022-12-23T11:16:59.403Z,18.58
2022-12-23T11:19:29.344Z,19.73
2022-12-23T11:22:01.031Z,18.67
2022-12-23T11:24:38.036Z,19.80
2022-12-23T11:27:12.603Z,19.73
2022-12-23T11:29:47.262Z,18.48
2022-12-23T11:32:24.610Z,20.10
2022-12-23T11:34:52.228Z,19.65
2022-12-23T11:37:36.201Z,19.90
2022-12-23T11:40:15.392Z,19.52
2022-12-23T11:42:42.960Z,19.00
2022-12-23T11:45:09.943Z,17.45
2022-12-23T11:47:41.530Z,16.20
2022-12-23T11:50:20.737Z,18.92
2022-12-23T11:52:52.600Z,17.25
2022-12-23T11:55:29.850Z,14.40
2022-12-23T11:57:57.103Z,14.30
2022-12-23T12:00:34.789Z,16.95
2022-12-23T12:03:04.675Z,14.93
2022-12-23T12:05:40.968Z,14.75
2022-12-23T12:08:13.930Z,14.57
2022-12-23T12:10:42.329Z,14.38
2022-12-23T12:13:24.181Z,13.40
2022-12-23T12:16:12.691Z,12.35
2022-12-23T12:18:42.918Z,12.18
2022-12-23T12:21:18.987Z,12.68
2022-12-23T12:24:17.344Z,14.63
2022-12-23T12:26:51.421Z,14.73
2022-12-23T12:29:28.941Z,11.93
2022-12-23T12:31:58.796Z,13.10
2022-12-23T12:34:58.201Z,13.02
2022-12-23T12:37:48.339Z,14.05
2022-12-23T12:40:25.061Z,14.90
2022-12-23T12:43:34.967Z,17.08
2022-12-23T12:46:27.147Z,15.98
2022-12-23T12:49:40.780Z,14.32
2022-12-23T12:52:19.506Z,15.15
2022-12-23T12:55:01.971Z,15.73
2022-12-23T12:57:29.754Z,19.10
2022-12-23T13:00:05.510Z,15.32
2022-12-23T13:02:53.989Z,16.10
2022-12-23T13:05:36.153Z,16.80
2022-12-23T13:08:51.171Z,15.45
2022-12-23T13:11:45.316Z,16.67
2022-12-23T13:14:43.895Z,19.63
2022-12-23T13:17:28.843Z,17.00
2022-12-23T13:20:29.216Z,14.88
2022-12-23T13:23:27.039Z,14.15
2022-12-23T13:26:00.642Z,12.68
2022-12-23T13:28:51.393Z,13.10
2022-12-23T13:31:42.378Z,14.82
2022-12-23T13:34:45.580Z,14.52
2022-12-23T13:37:39.537Z,13.95
2022-12-23T13:40:34.155Z,15.77
2022-12-23T13:43:22.266Z,11.07
2022-12-23T13:45:51.938Z,15.07
2022-12-23T13:48:27.446Z,15.05
2022-12-23T13:51:07.037Z,14.95
2022-12-23T13:53:58.042Z,15.85
2022-12-23T13:57:10.623Z,16.02
2022-12-23T14:00:20.313Z,15.18
2022-12-23T14:03:01.953Z,14.40
2022-12-23T14:05:33.370Z,18.70
2022-12-23T14:08:05.878Z,19.45
2022-12-23T14:10:33.194Z,17.42
2022-12-23T14:13:22.986Z,18.70
2022-12-23T14:16:12.920Z,17.88
2022-12-23T14:18:45.723Z,19.17
2022-12-23T14:21:21.552Z,19.83
2022-12-23T14:24:13.583Z,18.55
2022-12-23T14:27:03.110Z,19.52
2022-12-23T14:29:38.851Z,19.13
2022-12-23T14:32:34.510Z,21.88
2022-12-23T14:35:27.227Z,22.35
2022-12-23T14:38:15.119Z,26.23
2022-12-23T14:40:41.900Z,28.38
2022-12-23T14:43:25.532Z,29.73
2022-12-23T14:46:05.212Z,29.17
2022-12-23T14:48:47.898Z,27.80
2022-12-23T14:51:14.631Z,22.75
2022-12-23T14:53:57.081Z,20.48
2022-12-23T14:56:32.357Z,18.80
2022-12-23T14:59:26.934Z,22.15
2022-12-23T15:02:22.663Z,21.42
2022-12-23T15:04:58.054Z,18.67
2022-12-23T15:07:33.130Z,16.85
2022-12-23T15:10:02.370Z,17.40
2022-12-23T15:12:37.160Z,17.25
2022-12-23T15:15:07.048Z,18.05
2022-12-23T15:17:36.569Z,17.05
2022-12-23T15:20:20.029Z,18.45
2022-12-23T15:22:48.420Z,19.58
2022-12-23T15:25:24.113Z,18.15
2022-12-23T15:27:56.004Z,19.00
2022-12-23T15:30:30.508Z,18.58
2022-12-23T15:33:21.863Z,20.20
2022-12-23T15:35:53.688Z,19.77
2022-12-23T15:38:23.881Z,14.95
2022-12-23T15:40:59.935Z,18.92
2022-12-23T15:43:27.368Z,15.95
2022-12-23T15:46:09.784Z,16.70
2022-12-23T15:48:38.256Z,16.08
2022-12-23T15:54:32.440Z,19.77
2022-12-23T15:57:05.802Z,18.95
2022-12-23T15:59:39.147Z,21.02
2022-12-23T16:05:37.709Z,18.40
2022-12-23T16:08:16.504Z,17.70
2022-12-23T16:11:16.043Z,18.00
2022-12-23T16:13:58.480Z,17.30
2022-12-23T16:16:43.478Z,18.92
2022-12-23T16:22:22.619Z,21.23
2022-12-23T16:25:09.384Z,27.50
2022-12-23T16:27:47.837Z,21.52
2022-12-23T16:30:24.777Z,27.40
2022-12-23T16:33:04.613Z,35.70
2022-12-23T16:35:42.044Z,37.88
2022-12-23T16:38:26.111Z,34.72
2022-12-23T16:40:55.840Z,19.70
2022-12-23T16:43:24.542Z,57.97
2022-12-23T16:45:55.356Z,23.13
2022-12-23T16:51:22.114Z,13.32
2022-12-23T16:53:50.258Z,17.92
2022-12-23T16:56:20.258Z,19.63
2022-12-23T16:58:50.736Z,27.58
2022-12-23T17:01:27.850Z,33.85
2022-12-23T17:03:56.052Z,50.22
2022-12-23T17:06:23.656Z,26.27
2022-12-23T17:08:51.236Z,34.13
2022-12-23T17:11:23.456Z,30.33
2022-12-23T17:13:50.636Z,28.48
2022-12-23T17:16:25.863Z,19.15
2022-12-23T17:18:53.507Z,28.42
2022-12-23T17:21:26.877Z,13.13
2022-12-23T17:23:57.164Z,14.32
2022-12-23T17:26:24.156Z,21.48
2022-12-23T17:28:54.488Z,13.20
2022-12-23T17:31:27.016Z,15.18
2022-12-23T17:33:54.641Z,12.10
2022-12-23T17:36:28.015Z,10.90
2022-12-23T17:38:55.006Z,12.98
2022-12-23T17:41:32.230Z,11.80
2022-12-23T17:44:00.091Z,12.30
2022-12-23T17:46:41.085Z,13.90
2022-12-23T17:49:08.933Z,18.25
2022-12-23T17:51:36.139Z,17.85
2022-12-23T17:54:04.757Z,17.50
2022-12-23T17:56:31.655Z,17.42
2022-12-23T17:58:58.918Z,18.20
2022-12-23T18:01:28.414Z,15.10
2022-12-23T18:03:56.645Z,14.38
2022-12-23T18:06:25.321Z,16.00
2022-12-23T18:08:52.478Z,16.83
2022-12-23T18:11:27.024Z,15.73
2022-12-23T18:14:27.259Z,14.13
2022-12-23T18:17:06.362Z,12.23
2022-12-23T18:19:33.408Z,14.00
2022-12-23T18:22:00.209Z,14.32
2022-12-23T18:24:28.488Z,13.68
2022-12-23T18:26:55.387Z,14.07
2022-12-23T18:29:22.223Z,20.42
2022-12-23T18:31:51.933Z,14.30
2022-12-23T18:34:20.033Z,15.02
2022-12-23T18:36:48.501Z,15.50
2022-12-23T18:39:15.692Z,13.30
2022-12-23T18:41:43.023Z,13.85
2022-12-23T18:44:21.170Z,11.38
2022-12-23T18:46:49.300Z,11.25
2022-12-23T18:49:16.216Z,11.85
2022-12-23T18:51:43.378Z,12.43
2022-12-23T18:54:15.125Z,11.73
2022-12-23T18:56:42.164Z,11.05
2022-12-23T18:59:21.423Z,16.33
2022-12-23T19:01:54.605Z,37.05
2022-12-23T19:04:21.558Z,35.97
2022-12-23T19:06:51.041Z,33.08
2022-12-23T19:09:23.353Z,31.13
2022-12-23T19:11:52.250Z,34.55
2022-12-23T19:14:19.064Z,39.15
2022-12-23T19:16:51.273Z,43.38
2022-12-23T19:19:19.516Z,41.45
2022-12-23T19:21:46.771Z,43.25
2022-12-23T19:24:14.131Z,32.50
2022-12-23T19:26:40.928Z,34.22
2022-12-23T19:29:08.840Z,39.90
2022-12-23T19:31:35.652Z,39.03
2022-12-23T19:34:02.464Z,36.60
2022-12-23T19:36:29.332Z,32.53
2022-12-23T19:38:57.800Z,30.60
2022-12-23T19:41:25.907Z,30.17
2022-12-23T19:43:52.910Z,31.98
2022-12-23T19:46:19.805Z,26.55
2022-12-23T19:48:52.581Z,24.17
2022-12-23T19:51:19.731Z,24.60
2022-12-23T19:53:51.026Z,24.10
2022-12-23T19:56:22.846Z,21.73
2022-12-23T19:58:50.426Z,21.05
2022-12-23T20:01:24.438Z,19.27
2022-12-23T20:03:53.029Z,22.75
2022-12-23T20:06:27.050Z,22.38
2022-12-23T20:08:59.965Z,20.10
2022-12-23T20:11:30.931Z,27.40
2022-12-23T20:13:58.545Z,28.83
2022-12-23T20:16:26.038Z,26.00
2022-12-23T20:18:54.890Z,18.27
2022-12-23T20:21:21.747Z,24.10
2022-12-23T20:23:49.230Z,27.90
2022-12-23T20:26:18.608Z,27.65
2022-12-23T20:28:45.853Z,27.80
2022-12-23T20:31:19.396Z,26.10
2022-12-23T20:33:47.241Z,22.73
2022-12-23T20:36:16.240Z,29.27
2022-12-23T20:38:45.662Z,33.33
2022-12-23T20:41:19.866Z,40.75
2022-12-23T20:44:02.741Z,45.78
2022-12-23T20:46:34.196Z,33.17
2022-12-23T20:49:03.586Z,30.20
2022-12-23T20:51:30.560Z,25.25
2022-12-23T20:54:01.925Z,27.10
2022-12-23T20:56:30.508Z,27.85
2022-12-23T20:58:59.257Z,25.88
2022-12-23T21:01:31.057Z,27.10
2022-12-23T21:04:00.416Z,27.95
2022-12-23T21:06:29.261Z,30.75
2022-12-23T21:08:58.364Z,36.92
2022-12-23T21:11:28.662Z,42.40
2022-12-23T21:13:57.762Z,44.40
2022-12-23T21:16:26.819Z,39.25
2022-12-23T21:18:53.748Z,38.35
2022-12-23T21:21:23.622Z,38.88
2022-12-23T21:23:50.813Z,39.38
2022-12-23T21:26:19.968Z,38.15
2022-12-23T21:28:48.805Z,42.42
2022-12-23T21:31:20.389Z,42.92
2022-12-23T21:33:48.331Z,42.83
2022-12-23T21:36:20.999Z,44.42
2022-12-23T21:38:48.751Z,40.72
2022-12-23T21:41:18.774Z,39.00
2022-12-23T21:43:48.904Z,34.88
2022-12-23T21:46:17.727Z,37.75
2022-12-23T21:48:45.126Z,30.08
2022-12-23T21:51:21.871Z,31.80
2022-12-23T21:53:50.943Z,29.02
2022-12-23T21:56:19.933Z,28.00
2022-12-23T21:58:47.487Z,27.85
2022-12-23T22:01:19.621Z,20.20
2022-12-23T22:03:48.662Z,21.23
2022-12-23T22:06:18.151Z,24.88
2022-12-23T22:08:45.327Z,24.42
2022-12-23T22:11:24.918Z,20.30
2022-12-23T22:13:51.982Z,16.83
2022-12-23T22:16:21.649Z,20.83
2022-12-23T22:18:50.069Z,23.60
2022-12-23T22:21:19.767Z,29.10
2022-12-23T22:23:47.636Z,31.02
2022-12-23T22:26:24.067Z,33.83
2022-12-23T22:28:52.301Z,40.92
2022-12-23T22:31:31.296Z,41.72
2022-12-23T22:33:58.907Z,41.10
2022-12-23T22:36:26.358Z,43.28
2022-12-23T22:38:55.505Z,43.90
2022-12-23T22:41:23.200Z,42.63
2022-12-23T22:43:50.138Z,41.25
2022-12-23T22:46:18.506Z,40.35
2022-12-23T22:48:46.109Z,38.78
2022-12-23T22:51:24.859Z,41.33
2022-12-23T22:53:51.745Z,39.95
2022-12-23T22:56:20.801Z,41.88
2022-12-23T22:58:47.580Z,41.95
2022-12-23T23:01:35.333Z,37.85
2022-12-23T23:04:03.799Z,37.58
2022-12-23T23:06:38.011Z,37.85
2022-12-23T23:09:12.857Z,41.45
2022-12-23T23:11:40.226Z,37.78
2022-12-23T23:14:07.520Z,38.17
2022-12-23T23:16:34.554Z,39.55
2022-12-23T23:19:03.594Z,38.10
2022-12-23T23:21:30.343Z,38.92
2022-12-23T23:23:57.420Z,39.72
2022-12-23T23:26:27.633Z,39.58
2022-12-23T23:28:55.916Z,37.25
2022-12-23T23:34:10.258Z,37.28
2022-12-23T23:36:37.203Z,34.25
2022-12-23T23:39:04.234Z,30.75
2022-12-23T23:41:31.288Z,33.22
2022-12-23T23:43:58.050Z,31.65
2022-12-23T23:46:24.830Z,27.40
2022-12-23T23:48:51.659Z,24.20
2022-12-23T23:51:18.536Z,21.52
2022-12-23T23:53:45.224Z,18.63
2022-12-23T23:56:11.890Z,15.88
2022-12-23T23:58:38.659Z,15.02
